createdAt,value
2018-05-17T00:00:06.632Z,26.20
2018-05-17T00:02:32.614Z,26.20
2018-05-17T00:04:59.331Z,27.13
2018-05-17T00:07:25.283Z,25.30
2018-05-17T00:09:51.292Z,27.47
2018-05-17T00:12:17.302Z,27.50
2018-05-17T00:14:43.282Z,25.37
2018-05-17T00:17:09.273Z,25.57
2018-05-17T00:19:35.261Z,26.37
2018-05-17T00:22:01.256Z,27.87
2018-05-17T00:24:27.200Z,29.90
2018-05-17T00:26:56.194Z,27.13
2018-05-17T00:29:22.157Z,28.43
2018-05-17T00:31:48.179Z,30.77
2018-05-17T00:34:14.144Z,27.00
2018-05-17T00:36:40.141Z,31.13
2018-05-17T00:39:06.268Z,32.17
2018-05-17T00:41:32.945Z,31.23
2018-05-17T00:43:58.924Z,29.87
2018-05-17T00:46:24.881Z,30.53
2018-05-17T00:48:52.316Z,31.97
2018-05-17T00:51:18.288Z,31.13
2018-05-17T00:53:44.275Z,32.10
2018-05-17T00:56:10.231Z,33.37
2018-05-17T00:58:36.254Z,32.77
2018-05-17T01:01:02.240Z,31.40
2018-05-17T01:03:28.204Z,33.63
2018-05-17T01:05:54.208Z,32.70
2018-05-17T01:08:20.184Z,30.07
2018-05-17T01:10:46.172Z,32.20
2018-05-17T01:13:12.866Z,36.30
2018-05-17T01:15:38.855Z,30.30
2018-05-17T01:18:05.570Z,31.30
2018-05-17T01:20:31.565Z,34.30
2018-05-17T01:22:57.544Z,33.40
2018-05-17T01:25:23.529Z,34.00
2018-05-17T01:27:50.444Z,32.33
2018-05-17T01:30:16.396Z,34.60
2018-05-17T01:32:42.370Z,33.90
2018-05-17T01:35:08.399Z,35.57
2018-05-17T01:37:46.806Z,33.20
2018-05-17T01:40:13.541Z,36.30
2018-05-17T01:42:39.529Z,35.87
2018-05-17T01:45:05.502Z,35.47
2018-05-17T01:47:31.452Z,38.40
2018-05-17T01:49:57.435Z,37.43
2018-05-17T01:52:23.379Z,36.10
2018-05-17T01:54:49.367Z,35.27
2018-05-17T01:57:15.348Z,36.40
2018-05-17T01:59:48.462Z,35.83
2018-05-17T02:02:14.430Z,35.27
2018-05-17T02:04:40.399Z,36.40
2018-05-17T02:07:06.396Z,36.90
2018-05-17T02:09:32.342Z,39.00
2018-05-17T02:11:58.336Z,42.03
2018-05-17T02:14:24.279Z,40.13
2018-05-17T02:16:50.236Z,39.47
2018-05-17T02:19:16.313Z,41.30
2018-05-17T02:21:42.232Z,39.47
2018-05-17T02:24:08.972Z,38.90
2018-05-17T02:26:34.911Z,40.23
2018-05-17T02:29:00.895Z,40.20
2018-05-17T02:31:26.856Z,39.90
2018-05-17T02:33:52.831Z,42.33
2018-05-17T02:36:19.538Z,38.93
2018-05-17T02:38:45.508Z,40.97
2018-05-17T02:41:11.459Z,39.20
2018-05-17T02:43:38.186Z,45.20
2018-05-17T02:46:04.119Z,40.63
2018-05-17T02:48:30.066Z,38.30
2018-05-17T02:50:56.067Z,41.57
2018-05-17T02:53:22.017Z,42.77
2018-05-17T02:55:48.021Z,43.53
2018-05-17T02:58:14.007Z,42.80
2018-05-17T03:00:40.787Z,46.17
2018-05-17T03:03:07.483Z,48.77
2018-05-17T03:05:33.464Z,45.97
2018-05-17T03:08:00.183Z,47.50
2018-05-17T03:10:26.187Z,41.10
2018-05-17T03:12:52.167Z,42.97
2018-05-17T03:15:18.113Z,44.37
2018-05-17T03:17:51.181Z,45.23
2018-05-17T03:20:17.132Z,44.17
2018-05-17T03:22:43.115Z,45.23
2018-05-17T03:25:09.863Z,48.80
2018-05-17T03:27:36.563Z,44.00
2018-05-17T03:30:02.536Z,44.47
2018-05-17T03:32:29.258Z,47.67
2018-05-17T03:34:55.307Z,49.33
2018-05-17T03:37:21.283Z,49.17
2018-05-17T03:39:47.969Z,49.37
2018-05-17T03:42:13.934Z,59.50
2018-05-17T03:44:39.899Z,50.07
2018-05-17T03:47:06.633Z,49.70
2018-05-17T03:49:33.362Z,49.23
2018-05-17T03:51:59.302Z,52.77
2018-05-17T03:54:25.290Z,54.27
2018-05-17T03:56:52.021Z,48.47
2018-05-17T03:59:18.746Z,50.47
2018-05-17T04:01:57.271Z,48.20
2018-05-17T04:04:35.627Z,53.47
2018-05-17T04:07:01.604Z,49.00
2018-05-17T04:09:27.570Z,47.90
2018-05-17T04:11:53.564Z,51.67
2018-05-17T04:14:19.563Z,52.10
2018-05-17T04:16:45.566Z,51.67
2018-05-17T04:19:11.607Z,50.77
2018-05-17T04:21:37.560Z,49.50
2018-05-17T04:24:03.543Z,51.57
2018-05-17T04:26:29.497Z,47.93
2018-05-17T04:28:55.487Z,50.13
2018-05-17T04:31:22.172Z,51.57
2018-05-17T04:33:48.135Z,54.30
2018-05-17T04:36:14.120Z,52.50
2018-05-17T04:38:40.816Z,51.03
2018-05-17T04:41:06.839Z,50.53
2018-05-17T04:43:32.786Z,50.83
2018-05-17T04:45:58.741Z,50.93
2018-05-17T04:48:24.736Z,51.73
2018-05-17T04:50:50.780Z,50.37
2018-05-17T04:53:16.746Z,52.43
2018-05-17T04:55:42.711Z,53.00
2018-05-17T04:58:09.646Z,51.87
2018-05-17T05:00:35.811Z,54.07
2018-05-17T05:03:01.913Z,52.33
2018-05-17T05:05:27.751Z,53.47
2018-05-17T05:07:53.747Z,51.57
2018-05-17T05:10:19.743Z,51.80
2018-05-17T05:12:45.720Z,51.10
2018-05-17T05:15:11.658Z,51.10
2018-05-17T05:17:37.651Z,50.67
2018-05-17T05:20:03.607Z,51.57
2018-05-17T05:22:30.303Z,50.70
2018-05-17T05:24:56.270Z,52.37
2018-05-17T05:27:22.255Z,55.80
2018-05-17T05:29:48.225Z,50.40
2018-05-17T05:32:14.301Z,50.13
2018-05-17T05:34:41.045Z,47.53
2018-05-17T05:37:07.767Z,48.83
2018-05-17T05:39:33.723Z,50.17
2018-05-17T05:41:59.728Z,50.30
2018-05-17T05:44:25.707Z,49.13
2018-05-17T05:46:51.677Z,51.60
2018-05-17T05:49:17.680Z,48.13
2018-05-17T05:51:44.379Z,48.67
2018-05-17T05:54:10.356Z,48.50
2018-05-17T05:56:36.350Z,48.40
2018-05-17T05:59:02.326Z,46.63
2018-05-17T06:01:28.307Z,45.80
2018-05-17T06:03:54.252Z,50.73
2018-05-17T06:06:20.244Z,48.30
2018-05-17T06:08:46.194Z,48.50
2018-05-17T06:11:12.938Z,44.07
2018-05-17T06:13:38.927Z,45.13
2018-05-17T06:16:04.930Z,46.27
2018-05-17T06:18:31.637Z,44.63
2018-05-17T06:20:57.623Z,44.00
2018-05-17T06:23:23.613Z,45.23
2018-05-17T06:25:49.563Z,45.37
2018-05-17T06:28:15.552Z,44.30
2018-05-17T06:30:41.545Z,43.20
2018-05-17T06:33:08.266Z,41.37
2018-05-17T06:35:34.224Z,69.27
2018-05-17T06:38:00.208Z,41.17
2018-05-17T06:40:27.338Z,39.30
2018-05-17T06:42:55.283Z,43.10
2018-05-17T06:45:21.245Z,42.90
2018-05-17T06:47:47.236Z,42.83
2018-05-17T06:50:13.216Z,44.67
2018-05-17T06:52:39.223Z,41.77
2018-05-17T06:55:05.179Z,39.57
2018-05-17T06:57:31.147Z,38.60
2018-05-17T06:59:57.905Z,40.03
2018-05-17T07:02:24.626Z,39.77
2018-05-17T07:04:50.629Z,39.60
2018-05-17T07:07:16.590Z,36.90
2018-05-17T07:09:42.602Z,41.30
2018-05-17T07:12:08.546Z,41.77
2018-05-17T07:14:35.358Z,36.27
2018-05-17T07:17:02.101Z,38.20
2018-05-17T07:19:28.828Z,39.47
2018-05-17T07:21:54.816Z,35.63
2018-05-17T07:24:20.779Z,34.33
2018-05-17T07:26:46.735Z,34.60
2018-05-17T07:29:12.724Z,32.93
2018-05-17T07:31:38.711Z,34.77
2018-05-17T07:34:04.660Z,36.77
2018-05-17T07:36:30.636Z,34.53
2018-05-17T07:38:56.591Z,35.93
2018-05-17T07:41:22.558Z,37.00
2018-05-17T07:43:48.508Z,36.23
2018-05-17T07:46:15.251Z,34.20
2018-05-17T07:48:41.968Z,34.43
2018-05-17T07:51:07.931Z,37.00
2018-05-17T07:53:33.942Z,32.63
2018-05-17T07:55:59.897Z,33.00
2018-05-17T07:58:25.882Z,35.50
2018-05-17T08:00:51.823Z,33.50
2018-05-17T08:03:17.803Z,34.53
2018-05-17T08:05:43.844Z,34.00
2018-05-17T08:08:10.542Z,32.43
2018-05-17T08:10:36.495Z,33.10
2018-05-17T08:13:02.475Z,32.97
2018-05-17T08:15:28.466Z,33.47
2018-05-17T08:17:54.545Z,33.40
2018-05-17T08:20:21.159Z,33.00
2018-05-17T08:22:47.154Z,32.60
2018-05-17T08:25:13.908Z,31.03
2018-05-17T08:27:41.659Z,29.17
2018-05-17T08:30:09.467Z,30.40
2018-05-17T08:32:37.275Z,30.60
2018-05-17T08:35:05.043Z,27.17
2018-05-17T08:37:30.986Z,25.93
2018-05-17T08:39:56.963Z,25.77
2018-05-17T08:42:22.924Z,25.47
2018-05-17T08:44:49.652Z,25.13
2018-05-17T08:47:15.598Z,24.27
2018-05-17T08:49:41.636Z,23.40
2018-05-17T08:52:07.581Z,22.00
2018-05-17T08:54:34.285Z,22.13
2018-05-17T08:57:00.264Z,22.90
2018-05-17T08:59:26.249Z,20.80
2018-05-17T09:01:52.222Z,22.80
2018-05-17T09:04:18.205Z,18.53
2018-05-17T09:06:45.943Z,18.93
2018-05-17T09:09:13.779Z,19.33
2018-05-17T09:11:41.575Z,18.30
2018-05-17T09:14:07.522Z,18.97
2018-05-17T09:16:33.491Z,18.57
2018-05-17T09:19:00.231Z,17.93
2018-05-17T09:21:26.179Z,17.13
2018-05-17T09:23:53.136Z,16.23
2018-05-17T09:26:19.824Z,18.80
2018-05-17T09:28:45.805Z,17.20
2018-05-17T09:31:11.776Z,15.83
2018-05-17T09:33:37.784Z,17.70
2018-05-17T09:36:04.536Z,16.43
2018-05-17T09:38:30.529Z,18.17
2018-05-17T09:40:56.505Z,17.07
2018-05-17T09:43:22.451Z,18.20
2018-05-17T09:45:48.423Z,17.40
2018-05-17T09:48:14.410Z,16.60
2018-05-17T09:50:40.442Z,19.37
2018-05-17T09:53:06.436Z,15.87
2018-05-17T09:55:32.411Z,23.13
2018-05-17T09:57:58.407Z,19.03
2018-05-17T10:00:24.400Z,18.20
2018-05-17T10:02:50.385Z,18.23
2018-05-17T10:05:16.376Z,16.00
2018-05-17T10:07:42.369Z,23.17
2018-05-17T10:10:08.354Z,20.13
2018-05-17T10:12:35.088Z,19.30
2018-05-17T10:15:01.089Z,20.70
2018-05-17T10:17:28.179Z,22.13
2018-05-17T10:19:54.127Z,21.77
2018-05-17T10:22:20.115Z,20.43
2018-05-17T10:24:46.065Z,19.50
2018-05-17T10:27:12.094Z,25.03
2018-05-17T10:29:38.037Z,17.33
2018-05-17T10:32:04.032Z,26.83
2018-05-17T10:34:30.728Z,19.77
2018-05-17T10:36:56.671Z,19.93
2018-05-17T10:39:22.656Z,20.37
2018-05-17T10:41:49.346Z,17.20
2018-05-17T10:44:15.320Z,20.57
2018-05-17T10:46:41.278Z,22.20
2018-05-17T10:49:07.984Z,17.33
2018-05-17T10:51:33.933Z,21.50
2018-05-17T10:53:59.924Z,21.33
2018-05-17T10:56:25.883Z,18.47
2018-05-17T10:58:51.825Z,24.77
2018-05-17T11:01:17.819Z,20.77
2018-05-17T11:03:43.768Z,21.50
2018-05-17T11:06:09.925Z,20.27
2018-05-17T11:08:35.883Z,24.63
2018-05-17T11:11:01.871Z,20.73
2018-05-17T11:13:34.867Z,23.57
2018-05-17T11:16:00.846Z,19.53
2018-05-17T11:18:26.858Z,20.13
2018-05-17T11:20:52.872Z,21.37
2018-05-17T11:23:19.595Z,20.00
2018-05-17T11:25:45.550Z,22.70
2018-05-17T11:28:12.288Z,24.97
2018-05-17T11:30:38.235Z,20.97
2018-05-17T11:33:04.978Z,25.67
2018-05-17T11:35:30.925Z,24.93
2018-05-17T11:37:57.664Z,18.70
2018-05-17T11:40:23.615Z,18.23
2018-05-17T11:42:50.303Z,22.60
2018-05-17T11:45:17.047Z,27.37
2018-05-17T11:47:43.031Z,23.63
2018-05-17T11:50:09.026Z,24.93
2018-05-17T11:52:34.980Z,20.83
2018-05-17T11:55:00.957Z,30.67
2018-05-17T11:57:27.679Z,26.30
2018-05-17T11:59:53.728Z,25.20
2018-05-17T12:02:19.686Z,23.87
2018-05-17T12:04:45.635Z,31.47
2018-05-17T12:07:12.397Z,19.27
2018-05-17T12:09:38.393Z,27.30
2018-05-17T12:12:04.370Z,19.10
2018-05-17T12:14:30.315Z,23.57
2018-05-17T12:16:56.323Z,23.33
2018-05-17T12:19:23.051Z,27.83
2018-05-17T12:21:48.991Z,19.43
2018-05-17T12:24:14.980Z,20.30
2018-05-17T12:26:41.017Z,29.10
2018-05-17T12:29:06.996Z,17.63
2018-05-17T12:31:34.682Z,22.40
2018-05-17T12:34:00.566Z,18.53
2018-05-17T12:36:26.540Z,25.80
2018-05-17T12:38:52.523Z,20.57
2018-05-17T12:41:18.507Z,21.30
2018-05-17T12:43:44.514Z,25.30
2018-05-17T12:46:10.675Z,28.93
2018-05-17T12:48:36.672Z,24.37
2018-05-17T12:51:02.654Z,25.93
2018-05-17T12:53:28.619Z,30.20
2018-05-17T12:55:54.596Z,21.53
2018-05-17T12:58:20.571Z,20.73
2018-05-17T13:00:46.506Z,20.83
2018-05-17T13:03:12.548Z,22.70
2018-05-17T13:05:38.498Z,19.20
2018-05-17T13:08:04.471Z,22.80
2018-05-17T13:10:30.467Z,20.27
2018-05-17T13:12:56.539Z,22.33
2018-05-17T13:15:22.423Z,23.53
2018-05-17T13:17:48.457Z,21.00
2018-05-17T13:20:14.428Z,19.20
2018-05-17T13:22:41.163Z,22.20
2018-05-17T13:25:08.929Z,23.73
2018-05-17T13:27:36.658Z,18.27
2018-05-17T13:30:04.447Z,21.73
2018-05-17T13:32:32.189Z,21.73
2018-05-17T13:34:59.935Z,19.90
2018-05-17T13:37:27.752Z,24.03
2018-05-17T13:39:55.471Z,21.30
2018-05-17T13:42:23.251Z,22.43
2018-05-17T13:44:50.985Z,22.47
2018-05-17T13:47:17.672Z,21.67
2018-05-17T13:49:43.718Z,22.03
2018-05-17T13:52:09.800Z,22.30
2018-05-17T13:54:36.522Z,25.07
2018-05-17T13:57:02.490Z,24.20
2018-05-17T13:59:29.187Z,19.53
2018-05-17T14:01:55.199Z,27.23
2018-05-17T14:04:21.150Z,21.33
2018-05-17T14:06:47.150Z,22.97
2018-05-17T14:09:13.849Z,22.17
2018-05-17T14:11:39.961Z,29.43
2018-05-17T14:14:05.952Z,28.00
2018-05-17T14:16:32.675Z,23.20
2018-05-17T14:18:58.630Z,21.60
2018-05-17T14:21:24.627Z,29.40
2018-05-17T14:23:50.591Z,27.33
2018-05-17T14:26:16.542Z,24.73
2018-05-17T14:28:42.550Z,23.67
2018-05-17T14:31:08.487Z,32.27
2018-05-17T14:33:34.602Z,25.90
2018-05-17T14:36:00.548Z,30.20
2018-05-17T14:38:26.515Z,31.00
2018-05-17T14:40:52.492Z,22.23
2018-05-17T14:43:19.195Z,31.47
2018-05-17T14:45:45.183Z,20.67
2018-05-17T14:48:11.168Z,24.70
2018-05-17T14:50:37.112Z,27.43
2018-05-17T14:53:03.091Z,22.70
2018-05-17T14:55:29.835Z,19.30
2018-05-17T14:57:56.514Z,28.30
2018-05-17T15:00:22.487Z,27.70
2018-05-17T15:02:48.503Z,27.57
2018-05-17T15:05:14.441Z,27.07
2018-05-17T15:07:40.475Z,25.10
2018-05-17T15:10:06.447Z,25.57
2018-05-17T15:12:32.422Z,30.37
2018-05-17T15:14:59.115Z,32.53
2018-05-17T15:17:25.097Z,32.67
2018-05-17T15:19:51.808Z,24.23
2018-05-17T15:22:17.805Z,28.90
2018-05-17T15:24:43.897Z,19.87
2018-05-17T15:27:09.798Z,20.07
2018-05-17T15:29:35.812Z,21.40
2018-05-17T15:32:02.499Z,19.67
2018-05-17T15:34:28.482Z,26.33
2018-05-17T15:36:55.170Z,28.97
2018-05-17T15:39:21.114Z,27.20
2018-05-17T15:41:47.114Z,24.43
2018-05-17T15:44:13.847Z,25.83
2018-05-17T15:46:39.858Z,30.23
2018-05-17T15:49:05.798Z,29.27
2018-05-17T15:51:31.775Z,17.77
2018-05-17T15:53:58.508Z,31.50
2018-05-17T15:56:24.480Z,29.23
2018-05-17T15:58:50.459Z,31.50
2018-05-17T16:01:16.412Z,33.03
2018-05-17T16:03:42.426Z,28.00
2018-05-17T16:06:08.368Z,26.73
2018-05-17T16:08:34.450Z,21.90
2018-05-17T16:11:00.327Z,24.07
2018-05-17T16:13:26.648Z,32.67
2018-05-17T16:15:52.600Z,28.53
2018-05-17T16:18:18.566Z,24.87
2018-05-17T16:20:44.540Z,30.67
2018-05-17T16:23:11.250Z,26.20
2018-05-17T16:25:37.235Z,27.23
2018-05-17T16:28:03.191Z,30.80
2018-05-17T16:30:29.190Z,28.47
2018-05-17T16:32:55.930Z,26.30
2018-05-17T16:35:21.911Z,29.33
2018-05-17T16:37:47.854Z,36.70
2018-05-17T16:40:13.839Z,36.23
2018-05-17T16:42:39.820Z,30.67
2018-05-17T16:45:06.729Z,27.97
2018-05-17T16:47:32.740Z,27.30
2018-05-17T16:50:00.108Z,25.70
2018-05-17T16:52:26.099Z,30.67
2018-05-17T16:54:52.797Z,31.70
2018-05-17T16:57:18.784Z,30.20
2018-05-17T16:59:45.483Z,31.27
2018-05-17T17:02:11.505Z,29.90
2018-05-17T17:04:37.527Z,31.23
2018-05-17T17:07:03.490Z,30.17
2018-05-17T17:09:32.706Z,29.20
2018-05-17T17:12:00.438Z,38.97
2018-05-17T17:14:28.182Z,33.23
2018-05-17T17:16:56.115Z,30.80
2018-05-17T17:19:23.871Z,35.20
2018-05-17T17:21:51.610Z,37.13
2018-05-17T17:24:19.372Z,37.87
2018-05-17T17:26:45.362Z,26.70
2018-05-17T17:29:12.061Z,34.30
2018-05-17T17:31:38.092Z,30.70
2018-05-17T17:34:04.061Z,30.90
2018-05-17T17:36:30.059Z,32.50
2018-05-17T17:38:56.008Z,31.67
2018-05-17T17:41:22.139Z,27.70
2018-05-17T17:43:48.082Z,37.93
2018-05-17T17:46:14.055Z,32.50
2018-05-17T17:48:40.803Z,29.60
2018-05-17T17:51:06.783Z,31.97
2018-05-17T17:53:32.920Z,31.90
2018-05-17T17:55:58.908Z,29.40
2018-05-17T17:58:26.248Z,32.20
2018-05-17T18:00:52.251Z,34.27
2018-05-17T18:03:18.228Z,32.60
2018-05-17T18:05:44.219Z,32.27
2018-05-17T18:08:10.182Z,31.47
2018-05-17T18:10:36.192Z,39.70
2018-05-17T18:13:02.148Z,31.77
2018-05-17T18:15:28.140Z,26.27
2018-05-17T18:17:54.850Z,32.07
2018-05-17T18:20:20.811Z,25.80
2018-05-17T18:22:46.824Z,39.50
2018-05-17T18:25:12.799Z,31.63
2018-05-17T18:27:38.827Z,30.97
2018-05-17T18:30:04.823Z,25.47
2018-05-17T18:32:30.879Z,36.13
2018-05-17T18:34:56.790Z,28.23
2018-05-17T18:37:22.844Z,28.30
2018-05-17T18:39:48.841Z,27.87
2018-05-17T18:42:15.539Z,28.77
2018-05-17T18:44:41.527Z,29.83
2018-05-17T18:47:08.271Z,26.70
2018-05-17T18:49:34.976Z,32.13
2018-05-17T18:52:00.939Z,27.20
2018-05-17T18:54:26.991Z,25.10
2018-05-17T18:56:53.000Z,33.83
2018-05-17T18:59:18.866Z,28.33
2018-05-17T19:01:45.680Z,25.97
2018-05-17T19:04:11.632Z,33.07
2018-05-17T19:06:37.623Z,30.10
2018-05-17T19:09:04.635Z,29.50
2018-05-17T19:11:30.587Z,29.37
2018-05-17T19:13:57.360Z,25.83
2018-05-17T19:16:23.408Z,26.40
2018-05-17T19:18:50.407Z,21.87
2018-05-17T19:21:16.385Z,36.10
2018-05-17T19:23:43.116Z,32.90
2018-05-17T19:26:09.075Z,25.33
2018-05-17T19:28:35.851Z,26.33
2018-05-17T19:31:01.819Z,28.60
2018-05-17T19:33:27.776Z,27.53
2018-05-17T19:35:53.785Z,34.03
2018-05-17T19:38:19.734Z,25.03
2018-05-17T19:40:45.674Z,27.80
2018-05-17T19:43:11.651Z,30.53
2018-05-17T19:45:37.670Z,26.93
2018-05-17T19:48:04.392Z,29.13
2018-05-17T19:50:30.411Z,23.80
2018-05-17T19:52:56.368Z,22.60
2018-05-17T19:55:22.343Z,42.33
2018-05-17T19:57:49.060Z,36.63
2018-05-17T20:00:15.031Z,30.70
2018-05-17T20:02:41.715Z,25.83
2018-05-17T20:05:07.749Z,32.77
2018-05-17T20:07:33.708Z,34.77
2018-05-17T20:09:59.707Z,23.57
2018-05-17T20:12:25.700Z,25.63
2018-05-17T20:14:51.660Z,27.63
2018-05-17T20:17:18.355Z,31.93
2018-05-17T20:19:44.359Z,31.27
2018-05-17T20:22:10.404Z,33.13
2018-05-17T20:24:36.327Z,24.90
2018-05-17T20:27:03.051Z,28.93
2018-05-17T20:29:29.024Z,28.57
2018-05-17T20:31:54.967Z,28.10
2018-05-17T20:34:21.096Z,27.93
2018-05-17T20:36:47.109Z,31.67
2018-05-17T20:39:13.083Z,25.73
2018-05-17T20:41:39.036Z,29.67
2018-05-17T20:44:05.026Z,30.90
2018-05-17T20:46:31.716Z,24.30
2018-05-17T20:48:57.763Z,25.30
2018-05-17T20:51:23.761Z,23.60
2018-05-17T20:53:50.452Z,39.63
2018-05-17T20:56:16.407Z,25.80
2018-05-17T20:58:42.410Z,24.30
2018-05-17T21:01:08.376Z,26.70
2018-05-17T21:03:34.374Z,27.97
2018-05-17T21:06:00.322Z,24.53
2018-05-17T21:08:26.347Z,30.00
2018-05-17T21:10:52.303Z,30.63
2018-05-17T21:13:18.340Z,23.10
2018-05-17T21:15:44.339Z,24.63
2018-05-17T21:18:11.048Z,27.20
2018-05-17T21:20:37.035Z,26.73
2018-05-17T21:23:02.979Z,31.73
2018-05-17T21:25:29.029Z,21.70
2018-05-17T21:27:55.030Z,26.20
2018-05-17T21:30:21.012Z,46.13
2018-05-17T21:32:46.956Z,23.70
2018-05-17T21:35:12.962Z,30.03
2018-05-17T21:37:38.907Z,32.87
2018-05-17T21:40:04.880Z,24.13
2018-05-17T21:42:31.614Z,27.20
2018-05-17T21:44:57.661Z,32.23
2018-05-17T21:47:24.307Z,21.73
2018-05-17T21:49:50.247Z,23.00
2018-05-17T21:52:16.224Z,29.10
2018-05-17T21:54:42.936Z,22.53
2018-05-17T21:57:08.944Z,28.40
2018-05-17T21:59:34.932Z,27.50
2018-05-17T22:02:00.878Z,29.57
2018-05-17T22:04:27.731Z,29.90
2018-05-17T22:06:54.475Z,28.67
2018-05-17T22:09:20.410Z,23.60
2018-05-17T22:11:46.393Z,27.03
2018-05-17T22:14:12.347Z,25.40
2018-05-17T22:16:38.291Z,32.03
2018-05-17T22:19:04.271Z,26.00
2018-05-17T22:21:30.955Z,29.60
2018-05-17T22:23:56.960Z,23.23
2018-05-17T22:26:23.680Z,30.20
2018-05-17T22:28:49.663Z,34.80
2018-05-17T22:31:16.160Z,29.17
2018-05-17T22:33:42.157Z,26.53
2018-05-17T22:36:08.163Z,32.77
2018-05-17T22:38:34.861Z,32.63
2018-05-17T22:41:00.836Z,23.50
2018-05-17T22:43:26.792Z,25.70
2018-05-17T22:45:53.528Z,28.30
2018-05-17T22:48:20.460Z,31.50
2018-05-17T22:50:46.448Z,32.53
2018-05-17T22:53:13.141Z,25.63
2018-05-17T22:55:39.164Z,26.07
2018-05-17T22:58:17.537Z,31.47
2018-05-17T23:00:43.516Z,34.07
2018-05-17T23:03:09.504Z,24.03
2018-05-17T23:05:36.020Z,30.90
2018-05-17T23:08:02.029Z,24.80
2018-05-17T23:10:28.001Z,27.17
2018-05-17T23:12:54.029Z,28.20
2018-05-17T23:15:19.992Z,26.10
2018-05-17T23:17:45.984Z,26.97
2018-05-17T23:20:11.964Z,26.77
2018-05-17T23:22:38.003Z,29.57
2018-05-17T23:25:03.964Z,26.30
2018-05-17T23:27:30.704Z,26.03
2018-05-17T23:29:57.424Z,31.60
2018-05-17T23:32:23.408Z,21.97
2018-05-17T23:34:50.125Z,25.00
2018-05-17T23:37:18.084Z,23.37
2018-05-17T23:39:44.073Z,26.07
2018-05-17T23:42:10.788Z,22.73
2018-05-17T23:44:36.749Z,21.93
2018-05-17T23:47:02.733Z,31.60
2018-05-17T23:49:28.722Z,24.10
2018-05-17T23:51:55.449Z,18.83
2018-05-17T23:54:21.425Z,30.60
2018-05-17T23:56:48.156Z,17.47
2018-05-17T23:59:14.152Z,23.23
